Time;durP1;ratioP1;P1;durP2;ratioP2;P2;SDS_P1;SDS_P2;PMS_P1;PMS_P2;Temp;Humidity;BMP_temperature;BMP_pressure;BME280_temperature;BME280_humidity;BME280_pressure;Samples;Min_cycle;Max_cycle;Signal;HPM_P1;HPM_P2
2022/02/23 00:01:54;;;;;;;12.57;1.23;;;;;;;5.63;100.00;97421.03;5069734;28;20035;-87
2022/02/23 00:04:19;;;;;;;1.23;1.13;;;;;;;5.67;100.00;97432.38;5036632;28;20029;-85
2022/02/23 00:06:45;;;;;;;0.57;0.57;;;;;;;5.58;100.00;97422.19;5069875;28;20040;-87
2022/02/23 00:09:11;;;;;;;1.45;1.35;;;;;;;5.67;100.00;97427.94;5036286;28;20028;-85
2022/02/23 00:11:36;;;;;;;1.58;1.48;;;;;;;5.56;100.00;97424.91;5068833;28;20151;-84
2022/02/23 00:14:02;;;;;;;1.05;0.95;;;;;;;5.48;100.00;97405.81;5069304;28;20036;-86
2022/02/23 00:16:27;;;;;;;1.75;1.65;;;;;;;5.68;100.00;97432.34;5068470;28;20033;-85
2022/02/23 00:18:53;;;;;;;2.05;1.85;;;;;;;5.74;100.00;97437.38;5035370;28;20048;-85
2022/02/23 00:21:18;;;;;;;2.22;2.05;;;;;;;5.73;100.00;97422.38;5035377;28;20029;-86
2022/02/23 00:23:44;;;;;;;1.45;1.38;;;;;;;5.72;100.00;97412.66;5069002;28;20029;-86
2022/02/23 00:26:11;;;;;;;1.65;1.35;;;;;;;5.70;100.00;97405.72;5035915;28;20322;-85
2022/02/23 00:28:36;;;;;;;2.50;2.25;;;;;;;5.74;100.00;97412.63;5083230;28;20032;-87
2022/02/23 00:31:02;;;;;;;2.42;2.22;;;;;;;5.73;100.00;97413.53;5057128;28;20038;-85
2022/02/23 00:33:27;;;;;;;2.50;2.00;;;;;;;5.73;100.00;97426.81;5055254;28;20024;-85
2022/02/23 00:35:53;;;;;;;5.10;1.80;;;;;;;5.68;100.00;97423.50;5041903;28;20021;-85
2022/02/23 00:38:18;;;;;;;2.47;2.28;;;;;;;5.63;100.00;97420.22;5019104;28;20092;-86
2022/02/23 00:40:44;;;;;;;4.53;2.95;;;;;;;5.70;100.00;97419.84;5085498;28;20428;-86
2022/02/23 00:43:10;;;;;;;3.97;1.92;;;;;;;5.68;100.00;97416.41;5067568;28;20032;-84
2022/02/23 00:45:35;;;;;;;0.90;0.85;;;;;;;5.71;100.00;97418.94;5034943;28;20047;-86
2022/02/23 00:48:01;;;;;;;1.55;1.42;;;;;;;5.56;100.00;97413.44;5067988;28;20365;-86
2022/02/23 00:50:26;;;;;;;1.52;1.42;;;;;;;5.65;100.00;97440.44;5034334;28;20029;-85
2022/02/23 00:52:52;;;;;;;3.28;1.65;;;;;;;5.62;100.00;97424.66;5035001;28;20032;-85
2022/02/23 00:55:18;;;;;;;2.30;1.17;;;;;;;5.65;100.00;97424.50;5034712;28;20017;-85
2022/02/23 00:57:43;;;;;;;0.90;0.82;;;;;;;5.67;100.00;97429.72;5073568;28;20111;-85
2022/02/23 01:00:10;;;;;;;2.40;1.33;;;;;;;5.63;100.00;97421.03;5039076;28;20354;-85
2022/02/23 01:02:35;;;;;;;1.48;1.38;;;;;;;5.57;100.00;97428.44;5044904;28;20040;-85
2022/02/23 01:05:01;;;;;;;1.33;1.25;;;;;;;5.56;100.00;97424.06;5068492;28;20029;-86
2022/02/23 01:07:27;;;;;;;3.63;1.02;;;;;;;5.56;100.00;97435.53;5054807;28;20028;-86
2022/02/23 01:09:52;;;;;;;0.50;0.50;;;;;;;5.54;100.00;97428.56;5034760;28;20028;-86
2022/02/23 01:12:18;;;;;;;1.15;1.05;;;;;;;5.55;100.00;97423.19;5034576;28;20036;-85
2022/02/23 01:14:44;;;;;;;2.58;1.98;;;;;;;5.65;100.00;97448.38;5034336;28;20107;-85
2022/02/23 01:17:09;;;;;;;5.88;2.08;;;;;;;5.57;100.00;97442.53;5034011;28;20423;-85
2022/02/23 01:19:35;;;;;;;2.40;1.70;;;;;;;5.49;100.00;97439.38;5050897;28;20032;-85
2022/02/23 01:22:01;;;;;;;1.08;0.73;;;;;;;5.57;100.00;97439.88;5065183;28;20033;-85
2022/02/23 01:24:26;;;;;;;5.10;1.77;;;;;;;5.65;100.00;97451.03;5051180;28;20025;-87
2022/02/23 01:26:52;;;;;;;1.48;1.38;;;;;;;5.55;100.00;97446.19;5018375;28;20028;-86
2022/02/23 01:29:18;;;;;;;2.75;1.60;;;;;;;5.52;100.00;97439.25;5009030;28;20033;-86
2022/02/23 01:31:43;;;;;;;1.80;1.70;;;;;;;5.50;100.00;97446.41;5050849;28;20056;-86
2022/02/23 01:34:09;;;;;;;1.70;1.50;;;;;;;5.51;100.00;97448.09;5050698;28;20025;-86
2022/02/23 01:36:34;;;;;;;1.23;1.02;;;;;;;5.51;100.00;97445.47;5051976;28;20048;-85
2022/02/23 01:39:00;;;;;;;1.02;0.60;;;;;;;5.37;100.00;97432.81;5033257;28;20124;-86
2022/02/23 01:41:26;;;;;;;0.95;0.85;;;;;;;5.45;100.00;97443.06;4998340;28;20056;-83
2022/02/23 01:43:52;;;;;;;7.30;1.77;;;;;;;5.58;100.00;97452.22;5031539;28;20425;-85
2022/02/23 01:46:18;;;;;;;3.55;2.67;;;;;;;5.52;100.00;97447.19;4998534;28;20131;-85
2022/02/23 01:48:44;;;;;;;1.42;1.33;;;;;;;5.46;100.00;97448.31;4997949;28;20141;-86
2022/02/23 01:51:10;;;;;;;1.75;1.13;;;;;;;5.35;100.00;97439.13;5011360;28;20064;-86
2022/02/23 01:53:36;;;;;;;1.67;1.58;;;;;;;5.43;100.00;97439.63;5050704;28;20036;-86
2022/02/23 01:56:02;;;;;;;0.63;0.63;;;;;;;5.51;100.00;97447.28;5050232;28;20021;-85
2022/02/23 01:58:28;;;;;;;1.17;1.10;;;;;;;5.36;100.00;97441.69;5014200;28;20027;-85
2022/02/23 02:01:18;;;;;;;2.20;2.00;;;;;;;5.52;100.00;97460.47;4998235;28;20517;-85
2022/02/23 02:03:44;;;;;;;0.73;0.73;;;;;;;5.47;100.00;97465.13;5037166;28;20017;-85
2022/02/23 02:06:10;;;;;;;2.58;1.05;;;;;;;5.43;100.00;97460.84;5031178;28;20036;-85
2022/02/23 02:11:57;;;;;;;0.70;0.70;;;;;;;5.43;100.00;97460.84;5038509;28;20072;-84
2022/02/23 02:14:23;;;;;;;1.02;1.02;;;;;;;5.44;100.00;97467.91;5038879;28;20486;-85
2022/02/23 02:16:49;;;;;;;2.50;1.83;;;;;;;5.41;100.00;97465.38;5012165;28;20056;-86
2022/02/23 02:19:15;;;;;;;1.10;0.98;;;;;;;5.31;100.00;97456.06;5031374;28;20045;-85
2022/02/23 02:21:50;;;;;;;0.63;0.63;;;;;;;5.36;100.00;97473.50;5041675;28;20074;-85
2022/02/23 02:24:16;;;;;;;0.52;0.52;;;;;;;5.44;100.00;97483.81;5068877;28;20040;-85
2022/02/23 02:26:41;;;;;;;0.43;0.43;;;;;;;5.43;100.00;97480.28;5067440;28;20029;-85
2022/02/23 02:29:07;;;;;;;1.13;1.13;;;;;;;5.34;100.00;97483.34;5034151;28;20029;-85
2022/02/23 02:31:32;;;;;;;0.90;0.90;;;;;;;5.30;100.00;97481.72;5033656;28;20489;-85
2022/02/23 02:33:59;;;;;;;1.30;1.15;;;;;;;5.25;100.00;97477.56;5063133;28;20025;-85
2022/02/23 02:36:24;;;;;;;1.08;1.05;;;;;;;5.38;100.00;97498.16;5021904;28;20111;-86
2022/02/23 02:38:50;;;;;;;6.50;2.58;;;;;;;5.41;100.00;97494.56;5058960;28;20044;-85
2022/02/23 02:41:16;;;;;;;1.98;1.10;;;;;;;5.29;100.00;97484.47;5031397;28;20048;-85
2022/02/23 02:43:41;;;;;;;2.22;0.75;;;;;;;5.28;100.00;97488.03;5049997;28;20040;-85
2022/02/23 02:46:07;;;;;;;0.88;0.88;;;;;;;5.37;100.00;97499.13;5056120;28;20032;-85
2022/02/23 02:48:32;;;;;;;0.65;0.65;;;;;;;5.47;100.00;97504.91;5065116;28;20488;-84
2022/02/23 02:51:00;;;;;;;0.80;0.80;;;;;;;5.49;100.00;97505.69;5082937;28;20457;-85
2022/02/23 02:53:26;;;;;;;0.52;0.52;;;;;;;5.46;100.00;97492.56;5054923;28;20039;-86
2022/02/23 02:55:51;;;;;;;1.63;1.52;;;;;;;5.39;100.00;97485.78;5070631;28;20572;-85
2022/02/23 02:58:17;;;;;;;1.88;1.17;;;;;;;5.55;100.00;97513.38;5042603;28;20182;-85
2022/02/23 03:00:43;;;;;;;0.98;0.88;;;;;;;5.42;100.00;97506.84;5054161;28;20058;-85
2022/02/23 03:03:08;;;;;;;0.95;0.93;;;;;;;5.37;100.00;97503.56;5028803;28;20029;-86
2022/02/23 03:05:34;;;;;;;1.80;1.70;;;;;;;5.52;100.00;97518.81;5036785;28;20118;-87
2022/02/23 03:08:00;;;;;;;3.00;1.67;;;;;;;5.52;100.00;97518.81;5037923;28;20024;-86
2022/02/23 03:10:25;;;;;;;0.75;0.75;;;;;;;5.60;100.00;97518.50;5070612;28;20063;-86
2022/02/23 03:12:51;;;;;;;1.35;1.02;;;;;;;5.55;100.00;97521.34;5037193;28;20391;-86
2022/02/23 03:15:16;;;;;;;1.95;1.45;;;;;;;5.55;100.00;97529.28;5037266;28;20490;-86
2022/02/23 03:17:42;;;;;;;1.63;1.20;;;;;;;5.55;100.00;97528.44;5053082;28;20141;-87
2022/02/23 03:20:50;;;;;;;3.10;1.13;;;;;;;5.59;100.00;97530.03;5054236;28;20566;-87
2022/02/23 03:23:17;;;;;;;1.70;0.93;;;;;;;5.23;100.00;97495.31;5036844;28;20113;-86
2022/02/23 03:25:43;;;;;;;3.67;1.60;;;;;;;5.45;100.00;97523.50;5036913;28;20032;-86
2022/02/23 03:28:08;;;;;;;1.65;1.48;;;;;;;5.44;100.00;97523.59;5052884;28;20032;-86
2022/02/23 03:30:34;;;;;;;2.67;1.85;;;;;;;5.39;100.00;97510.50;5050025;28;20060;-86
2022/02/23 03:33:00;;;;;;;3.47;1.65;;;;;;;5.41;100.00;97505.16;5050178;28;20040;-85
2022/02/23 03:35:27;;;;;;;2.70;1.58;;;;;;;5.48;100.00;97519.84;5016668;28;20021;-86
2022/02/23 03:37:59;;;;;;;21.17;1.80;;;;;;;5.62;100.00;97541.38;5000585;28;20095;-86
2022/02/23 03:40:26;;;;;;;1.42;1.33;;;;;;;5.53;100.00;97531.16;5003039;28;20040;-86
2022/02/23 03:42:52;;;;;;;1.85;1.40;;;;;;;5.31;100.00;97509.13;5042181;28;20029;-86
2022/02/23 03:45:18;;;;;;;1.90;1.77;;;;;;;5.48;100.00;97538.44;5047913;28;20037;-86
2022/02/23 03:47:44;;;;;;;1.08;1.05;;;;;;;5.59;100.00;97546.81;5017145;28;20029;-86
2022/02/23 03:50:10;;;;;;;2.85;1.60;;;;;;;5.53;100.00;97544.44;5000421;28;20116;-86
2022/02/23 03:52:36;;;;;;;2.33;1.42;;;;;;;5.44;100.00;97528.91;5000179;28;20030;-86
2022/02/23 03:55:02;;;;;;;1.58;1.27;;;;;;;5.44;100.00;97529.72;5004515;28;20451;-86
2022/02/23 03:57:28;;;;;;;1.83;0.95;;;;;;;5.26;100.00;97521.72;5019357;28;20524;-86
2022/02/23 03:59:53;;;;;;;0.90;0.90;;;;;;;5.35;100.00;97529.28;5049155;28;20493;-87
2022/02/23 04:02:19;;;;;;;4.30;2.25;;;;;;;5.31;100.00;97528.53;5032044;28;20026;-86
2022/02/23 04:04:45;;;;;;;2.08;1.38;;;;;;;5.44;100.00;97545.66;5032760;28;20428;-85
2022/02/23 04:07:10;;;;;;;2.05;1.85;;;;;;;5.26;100.00;97529.66;5016170;28;20124;-87
2022/02/23 04:09:36;;;;;;;0.93;0.93;;;;;;;5.25;100.00;97530.56;4999546;28;20061;-86
2022/02/23 04:12:02;;;;;;;1.25;1.15;;;;;;;5.47;100.00;97558.78;5025281;28;20037;-85
2022/02/23 04:14:27;;;;;;;3.13;2.38;;;;;;;5.36;100.00;97549.53;5019062;28;20029;-86
2022/02/23 04:16:53;;;;;;;2.05;1.13;;;;;;;5.28;100.00;97546.38;5052759;28;20377;-86
2022/02/23 04:19:18;;;;;;;1.70;1.58;;;;;;;5.54;100.00;97579.78;5033817;28;20056;-87
2022/02/23 04:21:44;;;;;;;4.53;2.42;;;;;;;5.31;100.00;97536.50;5019895;28;20035;-86
2022/02/23 04:24:10;;;;;;;2.40;1.30;;;;;;;5.34;100.00;97556.72;5069254;28;20202;-85
2022/02/23 04:26:35;;;;;;;9.43;3.22;;;;;;;5.53;100.00;97584.22;5035600;28;20024;-86
2022/02/23 04:29:05;;;;;;;3.17;2.15;;;;;;;5.34;100.00;97551.41;5052289;28;20025;-87
2022/02/23 04:31:34;;;;;;;1.48;1.30;;;;;;;5.38;100.00;97564.47;5068587;28;20035;-87
2022/02/23 04:34:01;;;;;;;2.40;1.85;;;;;;;5.49;100.00;97587.91;5052524;28;20129;-85
2022/02/23 04:36:26;;;;;;;2.28;1.77;;;;;;;5.44;100.00;97577.47;5035603;28;20024;-87
2022/02/23 04:38:52;;;;;;;2.30;2.03;;;;;;;5.54;100.00;97591.22;5021767;28;20512;-87
2022/02/23 04:41:18;;;;;;;1.25;1.02;;;;;;;5.52;100.00;97587.78;5037421;28;20029;-89
2022/02/23 04:43:44;;;;;;;5.88;2.40;;;;;;;5.62;100.00;97596.22;5035791;28;20052;-87
2022/02/23 04:46:12;;;;;;;2.50;1.92;;;;;;;5.66;100.00;97601.31;5037823;28;20025;-89
2022/02/23 04:48:40;;;;;;;3.33;3.03;;;;;;;5.72;100.00;97622.28;5052774;28;20515;-88
2022/02/23 04:51:06;;;;;;;1.40;1.30;;;;;;;5.59;100.00;97601.66;5037034;28;20025;-89
2022/02/23 04:53:32;;;;;;;2.40;2.17;;;;;;;5.61;100.00;97605.97;5037259;28;20027;-88
2022/02/23 04:56:00;;;;;;;3.40;1.70;;;;;;;5.75;100.00;97632.78;5027114;28;20025;-88
2022/02/23 04:58:28;;;;;;;6.38;2.95;;;;;;;5.64;100.00;97648.28;5077848;28;20037;-91
2022/02/23 05:00:54;;;;;;;1.63;1.52;;;;;;;5.36;100.00;97599.94;5039856;28;20079;-92
2022/02/23 05:03:19;;;;;;;4.13;2.83;;;;;;;5.50;100.00;97607.34;5036107;28;20029;-86
2022/02/23 05:05:45;;;;;;;3.55;2.58;;;;;;;5.45;100.00;97618.13;5034553;28;20033;-87
2022/02/23 05:08:15;;;;;;;3.72;2.00;;;;;;;5.60;100.00;97651.16;5068284;28;20048;-89
2022/02/23 05:10:42;;;;;;;5.80;3.22;;;;;;;5.68;100.00;97657.00;5073404;28;20048;-86
2022/02/23 05:13:08;;;;;;;3.63;2.72;;;;;;;5.53;100.00;97626.66;5051787;28;20100;-86
2022/02/23 05:15:34;;;;;;;9.55;2.35;;;;;;;5.81;100.00;97666.19;5068736;28;20408;-88
2022/02/23 05:17:59;;;;;;;5.80;2.33;;;;;;;5.61;100.00;97651.06;5054271;28;20053;-87
2022/02/23 05:20:25;;;;;;;3.15;2.58;;;;;;;5.60;100.00;97648.50;5069207;28;20040;-86
2022/02/23 05:22:50;;;;;;;3.60;2.90;;;;;;;5.63;100.00;97659.81;5035771;28;20036;-87
2022/02/23 05:25:18;;;;;;;3.35;2.22;;;;;;;5.79;100.00;97692.78;5069131;28;20107;-93
2022/02/23 05:28:00;;;;;;;2.70;1.83;;;;;;;5.75;100.00;97691.16;5056174;28;20493;-87
2022/02/23 05:30:26;;;;;;;1.67;1.23;;;;;;;5.78;100.00;97701.66;5067407;28;20029;-76
2022/02/23 05:32:52;;;;;;;6.03;2.13;;;;;;;5.70;100.00;97701.13;5045875;28;20172;-87
2022/02/23 05:35:17;;;;;;;2.97;2.38;;;;;;;5.76;100.00;97713.25;5036259;28;20032;-85
2022/02/23 05:37:43;;;;;;;7.68;4.35;;;;;;;5.74;100.00;97712.47;5034494;28;20032;-85
2022/02/23 05:40:09;;;;;;;5.35;3.22;;;;;;;5.80;100.00;97717.53;5067321;28;20112;-85
2022/02/23 05:42:34;;;;;;;3.78;3.47;;;;;;;5.79;100.00;97713.16;5034926;28;20032;-86
2022/02/23 05:45:00;;;;;;;1.95;1.67;;;;;;;5.84;100.00;97721.81;5035140;28;20360;-89
2022/02/23 05:47:26;;;;;;;5.60;3.22;;;;;;;5.85;100.00;97715.53;5067706;28;20549;-86
2022/02/23 05:49:52;;;;;;;4.30;2.65;;;;;;;5.88;100.00;97731.38;5066891;28;20373;-85
2022/02/23 05:52:20;;;;;;;1.27;1.08;;;;;;;5.71;100.00;97715.25;5050729;28;20040;-86
2022/02/23 05:54:46;;;;;;;1.30;1.23;;;;;;;5.89;100.00;97736.66;5067097;28;20060;-87
2022/02/23 05:57:12;;;;;;;1.75;1.65;;;;;;;5.84;100.00;97727.13;5050621;28;20052;-87
2022/02/23 05:59:38;;;;;;;3.47;1.50;;;;;;;5.81;100.00;97738.72;5033885;28;20083;-86
2022/02/23 06:02:03;;;;;;;3.58;2.03;;;;;;;5.87;100.00;97735.84;5034110;28;20119;-85
2022/02/23 06:04:29;;;;;;;2.67;1.65;;;;;;;5.85;100.00;97750.97;5033692;28;20033;-85
2022/02/23 06:06:55;;;;;;;3.08;2.47;;;;;;;5.84;100.00;97743.03;5068496;28;20029;-84
2022/02/23 06:09:21;;;;;;;1.80;1.70;;;;;;;5.88;100.00;97750.84;5066909;28;20059;-85
2022/02/23 06:11:46;;;;;;;2.35;1.85;;;;;;;5.67;100.00;97745.47;5066564;28;20051;-85
2022/02/23 06:14:12;;;;;;;2.20;1.27;;;;;;;5.63;100.00;97744.72;5067656;28;20025;-87
2022/02/23 06:16:37;;;;;;;1.70;1.38;;;;;;;5.79;100.00;97764.44;5050997;28;20025;-85
2022/02/23 06:19:03;;;;;;;0.88;0.88;;;;;;;5.68;100.00;97763.13;5050588;28;20045;-85
2022/02/23 06:21:29;;;;;;;2.58;2.33;;;;;;;5.72;100.00;97778.03;5069522;28;20059;-85
2022/02/23 06:23:55;;;;;;;3.53;1.45;;;;;;;5.66;100.00;97768.50;5037590;28;20035;-86
2022/02/23 06:26:22;;;;;;;1.33;1.27;;;;;;;5.65;100.00;97777.41;5037214;28;20087;-85
2022/02/23 06:28:48;;;;;;;1.00;0.90;;;;;;;5.68;100.00;97785.22;5070630;28;20021;-85
2022/02/23 06:31:14;;;;;;;1.85;1.25;;;;;;;5.52;100.00;97770.81;5070650;28;20024;-85
2022/02/23 06:33:43;;;;;;;1.90;1.30;;;;;;;5.65;100.00;97790.66;5070057;28;20062;-86
2022/02/23 06:36:10;;;;;;;3.22;1.95;;;;;;;5.69;100.00;97796.72;5037135;28;20075;-85
2022/02/23 06:38:36;;;;;;;0.90;0.90;;;;;;;5.68;100.00;97795.84;5037017;28;20281;-86
2022/02/23 06:41:03;;;;;;;0.45;0.45;;;;;;;5.67;100.00;97796.75;5037192;28;20025;-85
2022/02/23 06:43:29;;;;;;;0.70;0.70;;;;;;;5.65;100.00;97795.97;5087149;28;20437;-87
2022/02/23 06:45:55;;;;;;;6.07;1.95;;;;;;;5.68;100.00;97789.66;5071415;28;20135;-86
2022/02/23 06:48:22;;;;;;;2.35;1.92;;;;;;;5.75;100.00;97799.97;5072146;28;20027;-87
2022/02/23 06:50:48;;;;;;;1.45;1.25;;;;;;;5.83;100.00;97810.31;5072247;28;20017;-85
2022/02/23 06:53:15;;;;;;;1.58;1.48;;;;;;;6.00;100.00;97816.72;5071197;28;20086;-85
2022/02/23 06:55:42;;;;;;;1.17;1.05;;;;;;;6.07;100.00;97820.00;5036805;28;20048;-86
2022/02/23 06:58:08;;;;;;;2.90;1.58;;;;;;;6.00;100.00;97811.41;5037262;28;20030;-82
2022/02/23 07:00:34;;;;;;;2.13;1.85;;;;;;;6.15;100.00;97809.06;5085162;28;20063;-75
2022/02/23 07:03:00;;;;;;;1.92;1.75;;;;;;;6.23;100.00;97809.63;5068699;28;20373;-78
2022/02/23 07:05:25;;;;;;;2.95;2.45;;;;;;;6.30;100.00;97806.66;5070373;28;20097;-86
2022/02/23 07:07:51;;;;;;;2.35;1.85;;;;;;;6.47;100.00;97811.28;5069241;28;20060;-76
2022/02/23 07:10:24;;;;;;;3.40;2.00;;;;;;;6.53;100.00;97818.97;5067880;28;20032;-83
2022/02/23 07:12:51;;;;;;;0.80;0.80;;;;;;;6.45;100.00;97802.50;5049357;28;20574;-78
2022/02/23 07:15:17;;;;;;;4.22;1.95;;;;;;;6.63;100.00;97817.69;5082319;28;20094;-77
2022/02/23 07:17:43;;;;;;;1.65;0.93;;;;;;;6.73;100.00;97804.88;5051665;28;20107;-85
2022/02/23 07:20:09;;;;;;;1.75;1.08;;;;;;;6.77;100.00;97809.09;5037226;28;20467;-83
2022/02/23 07:22:36;;;;;;;1.38;1.23;;;;;;;6.83;100.00;97801.75;5070000;28;20036;-86
2022/02/23 07:25:03;;;;;;;0.65;0.55;;;;;;;6.82;100.00;97805.34;5036673;28;20021;-85
2022/02/23 07:27:29;;;;;;;2.78;1.45;;;;;;;6.98;100.00;97822.34;5035933;28;20119;-85
2022/02/23 07:29:54;;;;;;;0.98;0.65;;;;;;;7.07;100.00;97798.00;5086199;28;20083;-85
2022/02/23 07:32:26;;;;;;;1.45;1.20;;;;;;;7.70;100.00;97813.81;5035791;28;20021;-86
2022/02/23 07:34:52;;;;;;;0.97;0.80;;;;;;;8.19;96.73;97770.59;5036982;28;20025;-84
2022/02/23 07:37:18;;;;;;;1.08;0.98;;;;;;;9.14;92.05;97811.06;5053623;28;20063;-87
2022/02/23 07:39:44;;;;;;;0.63;0.63;;;;;;;9.76;82.11;97796.19;5036393;28;20059;-83
2022/02/23 07:42:10;;;;;;;1.65;0.77;;;;;;;9.63;77.99;97781.75;5069477;28;20060;-85
2022/02/23 07:44:36;;;;;;;5.35;1.95;;;;;;;10.06;78.32;97807.84;5068977;28;20071;-86
2022/02/23 07:47:02;;;;;;;4.32;2.17;;;;;;;11.30;72.86;97800.56;5068868;28;20025;-85
2022/02/23 07:49:28;;;;;;;2.35;1.10;;;;;;;12.69;64.86;97776.50;5035779;28;20025;-85
2022/02/23 07:51:53;;;;;;;1.00;0.75;;;;;;;13.34;61.37;97802.47;5069830;28;20040;-85
2022/02/23 07:54:19;;;;;;;1.60;1.48;;;;;;;13.22;59.10;97773.75;5085753;28;20028;-86
2022/02/23 07:57:03;;;;;;;0.63;0.63;;;;;;;13.61;60.87;97810.44;5069125;28;20199;-84
2022/02/23 07:59:28;;;;;;;5.10;1.85;;;;;;;15.20;56.00;97779.81;5052003;28;20063;-85
2022/02/23 08:01:54;;;;;;;1.08;0.88;;;;;;;16.71;48.93;97761.34;5035409;28;20053;-84
2022/02/23 08:04:20;;;;;;;1.00;0.68;;;;;;;18.13;47.19;97753.53;5068712;28;20477;-86
2022/02/23 08:06:46;;;;;;;2.28;1.10;;;;;;;17.83;44.60;97787.75;5068848;28;20057;-85
2022/02/23 08:09:12;;;;;;;13.52;0.93;;;;;;;17.90;45.05;97803.44;5035320;28;20055;-84
2022/02/23 08:11:39;;;;;;;0.52;0.52;;;;;;;17.34;45.86;97771.28;5085407;28;20016;-85
2022/02/23 08:14:08;;;;;;;0.52;0.52;;;;;;;17.44;45.28;97785.75;5085244;28;20021;-85
2022/02/23 08:19:36;;;;;;;0.28;0.28;;;;;;;14.20;50.30;97827.69;5080090;28;20486;-85
2022/02/23 08:22:13;;;;;;;0.60;0.55;;;;;;;13.09;54.12;97831.09;5036978;28;20087;-85
2022/02/23 08:24:45;;;;;;;11.93;8.35;;;;;;;12.65;57.30;97804.47;5034943;28;20492;-85
2022/02/23 08:27:12;;;;;;;13.47;7.93;;;;;;;12.13;58.26;97834.69;5067787;28;20025;-85
2022/02/23 08:29:40;;;;;;;13.52;7.47;;;;;;;11.76;60.61;97846.00;5053359;28;20659;-82
2022/02/23 08:32:08;;;;;;;11.73;6.82;;;;;;;11.39;60.66;97840.19;5038072;28;20020;-84
2022/02/23 08:34:34;;;;;;;14.63;8.55;;;;;;;11.16;61.44;97805.91;5038189;28;20059;-84
2022/02/23 08:37:01;;;;;;;16.50;8.60;;;;;;;11.46;60.33;97835.31;5067870;28;20049;-83
2022/02/23 08:39:27;;;;;;;9.82;6.65;;;;;;;11.18;59.05;97801.31;5051274;28;20444;-85
2022/02/23 08:41:53;;;;;;;8.88;6.15;;;;;;;11.24;59.94;97800.94;5084614;28;20116;-85
2022/02/23 08:44:18;;;;;;;8.05;5.45;;;;;;;11.36;58.44;97829.66;5067342;28;20389;-85
2022/02/23 08:46:44;;;;;;;7.65;5.32;;;;;;;10.93;59.23;97790.34;5051133;28;20036;-85
2022/02/23 08:49:11;;;;;;;13.13;5.50;;;;;;;10.99;61.29;97826.59;5034852;28;20389;-84
2022/02/23 08:51:42;;;;;;;13.60;7.38;;;;;;;11.04;61.72;97819.16;5068405;28;20032;-84
2022/02/23 08:54:08;;;;;;;9.02;6.53;;;;;;;10.75;62.72;97794.13;5067785;28;20055;-84
2022/02/23 08:56:34;;;;;;;9.77;6.35;;;;;;;10.57;61.86;97796.06;5084549;28;20498;-84
2022/02/23 08:59:00;;;;;;;9.25;6.20;;;;;;;10.84;61.97;97812.31;5067430;28;20032;-84
2022/02/23 09:01:26;;;;;;;16.58;6.18;;;;;;;11.17;61.12;97812.09;5051210;28;20021;-85
2022/02/23 09:03:52;;;;;;;9.80;6.82;;;;;;;11.84;58.00;97825.78;5084382;28;20427;-85
2022/02/23 09:06:18;;;;;;;7.93;5.47;;;;;;;12.15;56.33;97797.91;5034652;28;20473;-84
2022/02/23 09:08:44;;;;;;;8.55;6.25;;;;;;;11.82;56.49;97784.84;5067299;28;20098;-85
2022/02/23 09:11:12;;;;;;;10.57;6.70;;;;;;;12.04;56.03;97811.16;5067253;28;20040;-85
2022/02/23 09:13:37;;;;;;;7.85;5.47;;;;;;;11.98;56.08;97824.06;5050942;28;20166;-85
2022/02/23 09:16:04;;;;;;;8.02;5.63;;;;;;;11.78;57.35;97814.63;5070498;28;20024;-85
2022/02/23 09:18:29;;;;;;;12.63;6.78;;;;;;;11.10;60.87;97803.59;5053789;28;20047;-83
2022/02/23 09:20:55;;;;;;;10.63;7.30;;;;;;;10.76;62.30;97820.78;5087725;28;20465;-84
2022/02/23 09:23:21;;;;;;;12.07;6.78;;;;;;;10.68;60.38;97823.03;5070860;28;20028;-84
2022/02/23 09:25:46;;;;;;;11.82;7.85;;;;;;;10.95;58.55;97812.53;5037579;28;20028;-84
2022/02/23 09:28:12;;;;;;;10.32;7.55;;;;;;;11.53;58.94;97836.69;5054079;28;20112;-85
2022/02/23 09:30:37;;;;;;;21.05;11.25;;;;;;;11.40;55.82;97804.41;5037759;28;20385;-85
2022/02/23 09:33:03;;;;;;;22.42;14.70;;;;;;;11.30;59.66;97853.25;5070887;28;20447;-84
2022/02/23 09:35:29;;;;;;;12.77;8.75;;;;;;;11.18;57.00;97820.06;5037104;28;20082;-84
2022/02/23 09:37:57;;;;;;;20.45;12.98;;;;;;;11.25;57.72;97829.47;5087422;28;20021;-84
2022/02/23 09:40:23;;;;;;;10.15;7.97;;;;;;;11.28;58.18;97853.38;5070268;28;20031;-83
2022/02/23 09:42:50;;;;;;;10.93;6.93;;;;;;;11.04;59.61;97851.28;5053967;28;20032;-84
2022/02/23 09:45:16;;;;;;;7.32;5.45;;;;;;;10.32;60.44;97850.06;5087132;28;20029;-83
2022/02/23 09:47:42;;;;;;;11.68;7.00;;;;;;;9.95;61.61;97838.78;5087353;28;20028;-83
2022/02/23 09:50:20;;;;;;;13.70;7.68;;;;;;;9.90;62.21;97856.91;5087186;28;20087;-84
2022/02/23 09:52:47;;;;;;;25.25;13.73;;;;;;;10.09;62.68;97858.47;5037774;28;20492;-85
2022/02/23 09:55:13;;;;;;;11.70;7.70;;;;;;;10.26;62.76;97849.56;5073354;28;20502;-85
2022/02/23 09:57:39;;;;;;;23.35;13.50;;;;;;;10.53;60.70;97844.44;5074601;28;20408;-83
2022/02/23 10:00:07;;;;;;;16.48;8.90;;;;;;;10.55;59.37;97840.72;5041484;28;20032;-84
2022/02/23 10:02:34;;;;;;;25.95;13.57;;;;;;;10.85;58.24;97827.41;5042171;28;20051;-85
2022/02/23 10:05:02;;;;;;;51.28;26.58;;;;;;;11.43;57.33;97833.69;5041824;28;20111;-84
2022/02/23 10:07:30;;;;;;;30.73;19.73;;;;;;;11.90;55.96;97843.34;5041244;28;20027;-85
2022/02/23 10:10:00;;;;;;;9.25;6.70;;;;;;;12.38;53.55;97821.44;5041423;28;20020;-86
2022/02/23 10:12:26;;;;;;;20.00;14.02;;;;;;;13.43;51.71;97820.63;5091832;28;20058;-85
2022/02/23 10:15:05;;;;;;;21.45;11.88;;;;;;;14.60;49.53;97807.72;5058210;28;20564;-86
2022/02/23 10:17:38;;;;;;;78.68;44.78;;;;;;;15.38;47.21;97797.25;5074558;28;20522;-84
2022/02/23 10:20:18;;;;;;;14.48;10.05;;;;;;;15.69;46.90;97799.31;5058117;28;20024;-84
2022/02/23 10:22:45;;;;;;;15.43;10.27;;;;;;;15.69;45.44;97788.53;5042342;28;20055;-85
2022/02/23 10:25:11;;;;;;;10.15;7.97;;;;;;;15.47;45.10;97777.69;5074073;28;20055;-85
2022/02/23 10:27:38;;;;;;;10.45;6.65;;;;;;;14.86;46.81;97786.91;5074927;28;20024;-85
2022/02/23 10:30:05;;;;;;;11.25;6.22;;;;;;;14.39;46.43;97781.50;5075805;28;20028;-85
2022/02/23 10:32:30;;;;;;;12.85;8.35;;;;;;;14.38;47.30;97801.31;5058431;28;20054;-85
2022/02/23 10:35:04;;;;;;;9.48;6.60;;;;;;;13.76;50.03;97816.53;5041452;28;20040;-85
2022/02/23 10:37:31;;;;;;;9.55;6.30;;;;;;;12.93;52.60;97818.66;5042397;28;20088;-85
2022/02/23 10:40:00;;;;;;;9.43;5.70;;;;;;;13.08;53.37;97808.72;5040968;28;20036;-85
2022/02/23 10:42:29;;;;;;;10.10;6.22;;;;;;;13.39;50.63;97820.94;5041256;28;20157;-84
2022/02/23 10:44:57;;;;;;;10.27;7.47;;;;;;;13.48;51.17;97809.56;5041117;28;20043;-85
2022/02/23 10:47:33;;;;;;;21.08;12.88;;;;;;;13.46;50.78;97817.72;5041823;28;20042;-84
2022/02/23 10:50:13;;;;;;;11.25;8.10;;;;;;;13.56;51.78;97813.44;5057533;28;20052;-84
2022/02/23 10:52:44;;;;;;;13.73;8.80;;;;;;;13.44;50.58;97806.22;5057636;28;20039;-84
2022/02/23 10:55:21;;;;;;;17.85;10.18;;;;;;;12.80;54.90;97838.34;5073771;28;20507;-86
2022/02/23 10:57:51;;;;;;;13.15;7.90;;;;;;;13.75;50.75;97817.53;5057544;28;20032;-86
2022/02/23 11:00:19;;;;;;;11.95;7.20;;;;;;;14.34;49.60;97811.44;5056841;28;20024;-84
2022/02/23 11:02:46;;;;;;;12.52;8.00;;;;;;;14.33;48.67;97796.28;5073837;28;20024;-85
2022/02/23 11:05:13;;;;;;;20.17;8.73;;;;;;;14.24;51.34;97796.94;5056495;28;20047;-85
2022/02/23 11:07:42;;;;;;;9.40;5.93;;;;;;;14.65;46.46;97794.75;5039478;28;20566;-85
2022/02/23 11:10:13;;;;;;;13.75;9.27;;;;;;;14.59;46.37;97780.88;5072783;28;20021;-86
2022/02/23 11:12:44;;;;;;;12.73;7.80;;;;;;;14.16;47.89;97780.47;5056367;28;20024;-86
2022/02/23 11:15:11;;;;;;;12.43;8.02;;;;;;;13.78;48.14;97798.50;5073612;28;20016;-85
2022/02/23 11:17:38;;;;;;;15.93;8.65;;;;;;;13.71;48.40;97789.13;5037104;28;20128;-85
2022/02/23 11:20:04;;;;;;;10.52;6.85;;;;;;;13.87;47.44;97785.22;5037689;28;20094;-85
2022/02/23 11:22:30;;;;;;;11.77;7.22;;;;;;;13.82;48.88;97784.72;5069591;28;20029;-84
2022/02/23 11:24:57;;;;;;;12.98;6.28;;;;;;;13.92;48.32;97785.78;5069886;28;20024;-85
2022/02/23 11:27:24;;;;;;;7.10;4.88;;;;;;;13.91;46.91;97780.50;5070040;28;20056;-85
2022/02/23 11:30:04;;;;;;;8.55;5.70;;;;;;;14.06;48.64;97782.09;5070134;28;20029;-86
2022/02/23 11:32:38;;;;;;;9.38;5.13;;;;;;;14.12;47.18;97781.63;5069016;28;20035;-86
2022/02/23 11:35:04;;;;;;;12.60;4.88;;;;;;;13.82;47.63;97786.53;5053385;28;20040;-85
2022/02/23 11:37:30;;;;;;;7.32;4.50;;;;;;;14.01;47.28;97781.56;5069682;28;20087;-86